sensor_id;sensor_type;location;lat;lon;timestamp;temperature;humidity
80560;DHT22;70065;42.700;23.316;2023-08-30T00:00:56;32.10;29.80
80560;DHT22;70065;42.700;23.316;2023-08-30T00:03:22;32.10;29.90
80560;DHT22;70065;42.700;23.316;2023-08-30T00:05:48;32.10;29.90
80560;DHT22;70065;42.700;23.316;2023-08-30T00:08:13;32.10;29.90
80560;DHT22;70065;42.700;23.316;2023-08-30T00:10:44;32.10;29.90
80560;DHT22;70065;42.700;23.316;2023-08-30T00:13:09;32.00;29.90
80560;DHT22;70065;42.700;23.316;2023-08-30T00:15:35;32.00;29.90
80560;DHT22;70065;42.700;23.316;2023-08-30T00:18:01;32.00;29.90
80560;DHT22;70065;42.700;23.316;2023-08-30T00:51:37;31.90;30.10
80560;DHT22;70065;42.700;23.316;2023-08-30T00:54:03;31.90;30.10
80560;DHT22;70065;42.700;23.316;2023-08-30T00:56:35;31.90;30.20
80560;DHT22;70065;42.700;23.316;2023-08-30T00:59:21;31.90;30.10
80560;DHT22;70065;42.700;23.316;2023-08-30T01:02:08;31.90;30.20
80560;DHT22;70065;42.700;23.316;2023-08-30T01:04:34;31.90;30.20
80560;DHT22;70065;42.700;23.316;2023-08-30T01:07:00;31.90;30.20
80560;DHT22;70065;42.700;23.316;2023-08-30T01:09:26;31.90;30.20
80560;DHT22;70065;42.700;23.316;2023-08-30T01:14:38;31.90;30.20
80560;DHT22;70065;42.700;23.316;2023-08-30T01:17:05;31.90;30.20
80560;DHT22;70065;42.700;23.316;2023-08-30T01:27:24;31.80;30.30
80560;DHT22;70065;42.700;23.316;2023-08-30T01:29:51;31.80;30.40
80560;DHT22;70065;42.700;23.316;2023-08-30T01:32:19;31.80;30.30
80560;DHT22;70065;42.700;23.316;2023-08-30T01:34:50;31.80;30.40
80560;DHT22;70065;42.700;23.316;2023-08-30T01:37:17;31.80;30.50
80560;DHT22;70065;42.700;23.316;2023-08-30T01:39:43;31.80;30.40
80560;DHT22;70065;42.700;23.316;2023-08-30T01:42:19;31.80;30.20
80560;DHT22;70065;42.700;23.316;2023-08-30T01:44:49;31.80;30.40
80560;DHT22;70065;42.700;23.316;2023-08-30T01:47:15;31.80;30.40
80560;DHT22;70065;42.700;23.316;2023-08-30T01:49:43;31.80;30.40
80560;DHT22;70065;42.700;23.316;2023-08-30T01:52:10;31.80;30.50
80560;DHT22;70065;42.700;23.316;2023-08-30T01:54:37;31.80;30.40
80560;DHT22;70065;42.700;23.316;2023-08-30T01:57:04;31.80;30.50
80560;DHT22;70065;42.700;23.316;2023-08-30T01:59:30;31.80;30.40
80560;DHT22;70065;42.700;23.316;2023-08-30T02:01:57;31.70;30.40
80560;DHT22;70065;42.700;23.316;2023-08-30T02:04:23;31.80;30.50
80560;DHT22;70065;42.700;23.316;2023-08-30T02:06:55;31.70;30.40
80560;DHT22;70065;42.700;23.316;2023-08-30T02:12:14;31.80;30.50
80560;DHT22;70065;42.700;23.316;2023-08-30T02:14:47;31.70;30.60
80560;DHT22;70065;42.700;23.316;2023-08-30T02:17:20;31.70;30.50
80560;DHT22;70065;42.700;23.316;2023-08-30T02:19:46;31.70;30.50
80560;DHT22;70065;42.700;23.316;2023-08-30T02:22:13;31.70;30.50
80560;DHT22;70065;42.700;23.316;2023-08-30T02:24:38;31.70;30.50
80560;DHT22;70065;42.700;23.316;2023-08-30T02:27:04;31.70;30.60
80560;DHT22;70065;42.700;23.316;2023-08-30T02:29:30;31.70;30.60
80560;DHT22;70065;42.700;23.316;2023-08-30T02:31:56;31.70;30.60
80560;DHT22;70065;42.700;23.316;2023-08-30T02:34:22;31.70;30.60
80560;DHT22;70065;42.700;23.316;2023-08-30T02:36:47;31.70;30.70
80560;DHT22;70065;42.700;23.316;2023-08-30T02:39:16;31.70;30.70
80560;DHT22;70065;42.700;23.316;2023-08-30T02:41:41;31.70;30.70
80560;DHT22;70065;42.700;23.316;2023-08-30T02:44:13;31.70;30.70
80560;DHT22;70065;42.700;23.316;2023-08-30T02:46:39;31.70;30.70
80560;DHT22;70065;42.700;23.316;2023-08-30T02:49:05;31.70;30.80
80560;DHT22;70065;42.700;23.316;2023-08-30T02:51:31;31.70;30.80
80560;DHT22;70065;42.700;23.316;2023-08-30T02:53:57;31.70;30.80
80560;DHT22;70065;42.700;23.316;2023-08-30T02:56:23;31.60;30.70
80560;DHT22;70065;42.700;23.316;2023-08-30T02:58:49;31.60;30.80
80560;DHT22;70065;42.700;23.316;2023-08-30T03:01:15;31.60;30.80
80560;DHT22;70065;42.700;23.316;2023-08-30T03:03:41;31.60;30.80
80560;DHT22;70065;42.700;23.316;2023-08-30T03:06:07;31.60;30.80
80560;DHT22;70065;42.700;23.316;2023-08-30T03:08:33;31.60;30.90
80560;DHT22;70065;42.700;23.316;2023-08-30T03:11:12;31.60;30.90
80560;DHT22;70065;42.700;23.316;2023-08-30T03:13:38;31.60;30.90
80560;DHT22;70065;42.700;23.316;2023-08-30T03:16:14;31.60;30.90
80560;DHT22;70065;42.700;23.316;2023-08-30T03:18:43;31.60;30.90
80560;DHT22;70065;42.700;23.316;2023-08-30T03:21:09;31.60;31.00
80560;DHT22;70065;42.700;23.316;2023-08-30T03:23:35;31.50;31.00
80560;DHT22;70065;42.700;23.316;2023-08-30T03:26:08;31.50;31.00
80560;DHT22;70065;42.700;23.316;2023-08-30T03:28:37;31.50;30.90
80560;DHT22;70065;42.700;23.316;2023-08-30T03:33:39;31.50;31.00
80560;DHT22;70065;42.700;23.316;2023-08-30T03:36:07;31.50;31.00
80560;DHT22;70065;42.700;23.316;2023-08-30T03:38:35;31.50;31.00
80560;DHT22;70065;42.700;23.316;2023-08-30T03:41:02;31.50;31.10
80560;DHT22;70065;42.700;23.316;2023-08-30T03:43:29;31.50;30.90
80560;DHT22;70065;42.700;23.316;2023-08-30T03:45:55;31.50;31.10
80560;DHT22;70065;42.700;23.316;2023-08-30T03:48:22;31.50;32.10
80560;DHT22;70065;42.700;23.316;2023-08-30T03:50:47;31.50;31.10
80560;DHT22;70065;42.700;23.316;2023-08-30T03:53:13;31.50;31.10
80560;DHT22;70065;42.700;23.316;2023-08-30T03:55:40;31.50;31.10
80560;DHT22;70065;42.700;23.316;2023-08-30T03:58:06;31.50;31.10
80560;DHT22;70065;42.700;23.316;2023-08-30T04:00:31;31.50;31.00
80560;DHT22;70065;42.700;23.316;2023-08-30T04:02:57;31.60;31.10
80560;DHT22;70065;42.700;23.316;2023-08-30T04:05:24;31.60;31.00
80560;DHT22;70065;42.700;23.316;2023-08-30T04:07:50;31.60;31.00
80560;DHT22;70065;42.700;23.316;2023-08-30T04:10:18;31.70;30.90
80560;DHT22;70065;42.700;23.316;2023-08-30T04:12:43;31.80;30.80
80560;DHT22;70065;42.700;23.316;2023-08-30T04:15:09;31.90;30.60
80560;DHT22;70065;42.700;23.316;2023-08-30T04:17:37;32.20;30.40
80560;DHT22;70065;42.700;23.316;2023-08-30T04:20:04;32.50;30.00
80560;DHT22;70065;42.700;23.316;2023-08-30T04:22:34;32.80;29.70
80560;DHT22;70065;42.700;23.316;2023-08-30T04:25:04;33.30;29.20
80560;DHT22;70065;42.700;23.316;2023-08-30T04:27:31;33.70;28.80
80560;DHT22;70065;42.700;23.316;2023-08-30T04:29:57;34.20;28.30
80560;DHT22;70065;42.700;23.316;2023-08-30T04:32:22;34.70;27.70
80560;DHT22;70065;42.700;23.316;2023-08-30T04:34:48;35.30;27.30
80560;DHT22;70065;42.700;23.316;2023-08-30T04:41:12;36.20;26.40
80560;DHT22;70065;42.700;23.316;2023-08-30T04:56:13;35.50;26.40
80560;DHT22;70065;42.700;23.316;2023-08-30T04:58:54;35.00;26.90
80560;DHT22;70065;42.700;23.316;2023-08-30T05:01:20;34.70;27.20
80560;DHT22;70065;42.700;23.316;2023-08-30T05:04:02;34.40;27.40
80560;DHT22;70065;42.700;23.316;2023-08-30T05:06:40;34.20;27.50
80560;DHT22;70065;42.700;23.316;2023-08-30T05:09:06;34.00;27.90
80560;DHT22;70065;42.700;23.316;2023-08-30T05:11:31;33.90;27.90
80560;DHT22;70065;42.700;23.316;2023-08-30T05:14:04;33.80;28.10
80560;DHT22;70065;42.700;23.316;2023-08-30T05:16:30;33.80;28.10
80560;DHT22;70065;42.700;23.316;2023-08-30T05:18:56;33.80;28.20
80560;DHT22;70065;42.700;23.316;2023-08-30T05:21:24;33.90;28.20
80560;DHT22;70065;42.700;23.316;2023-08-30T05:23:50;34.30;27.70
80560;DHT22;70065;42.700;23.316;2023-08-30T05:26:22;34.90;27.40
80560;DHT22;70065;42.700;23.316;2023-08-30T05:28:47;35.80;26.60
80560;DHT22;70065;42.700;23.316;2023-08-30T05:31:13;36.50;25.90
80560;DHT22;70065;42.700;23.316;2023-08-30T05:33:39;37.30;25.10
80560;DHT22;70065;42.700;23.316;2023-08-30T05:36:04;37.90;24.60
80560;DHT22;70065;42.700;23.316;2023-08-30T05:38:30;38.40;24.20
80560;DHT22;70065;42.700;23.316;2023-08-30T05:40:57;38.60;23.90
80560;DHT22;70065;42.700;23.316;2023-08-30T05:43:23;38.40;23.90
80560;DHT22;70065;42.700;23.316;2023-08-30T05:45:49;38.30;24.00
80560;DHT22;70065;42.700;23.316;2023-08-30T05:48:17;38.70;23.60
80560;DHT22;70065;42.700;23.316;2023-08-30T05:50:45;39.30;24.00
80560;DHT22;70065;42.700;23.316;2023-08-30T05:53:20;40.00;22.60
80560;DHT22;70065;42.700;23.316;2023-08-30T05:56:22;40.60;22.00
80560;DHT22;70065;42.700;23.316;2023-08-30T05:58:54;41.50;21.50
80560;DHT22;70065;42.700;23.316;2023-08-30T06:01:24;42.10;21.10
80560;DHT22;70065;42.700;23.316;2023-08-30T06:03:54;42.50;20.60
80560;DHT22;70065;42.700;23.316;2023-08-30T06:06:20;42.90;20.30
80560;DHT22;70065;42.700;23.316;2023-08-30T06:08:53;43.20;20.00
80560;DHT22;70065;42.700;23.316;2023-08-30T06:11:19;43.50;19.80
80560;DHT22;70065;42.700;23.316;2023-08-30T06:13:51;43.60;19.60
80560;DHT22;70065;42.700;23.316;2023-08-30T06:16:33;43.60;19.60
80560;DHT22;70065;42.700;23.316;2023-08-30T06:18:58;43.70;19.30
80560;DHT22;70065;42.700;23.316;2023-08-30T06:21:27;43.70;19.50
80560;DHT22;70065;42.700;23.316;2023-08-30T06:23:56;43.40;19.60
80560;DHT22;70065;42.700;23.316;2023-08-30T06:26:27;43.30;19.70
80560;DHT22;70065;42.700;23.316;2023-08-30T06:28:52;43.40;19.70
80560;DHT22;70065;42.700;23.316;2023-08-30T06:31:18;43.50;19.40
80560;DHT22;70065;42.700;23.316;2023-08-30T06:33:44;43.70;19.40
80560;DHT22;70065;42.700;23.316;2023-08-30T06:36:10;43.90;19.30
80560;DHT22;70065;42.700;23.316;2023-08-30T06:38:37;44.20;19.10
80560;DHT22;70065;42.700;23.316;2023-08-30T06:41:05;44.40;18.90
80560;DHT22;70065;42.700;23.316;2023-08-30T06:43:30;44.70;18.80
80560;DHT22;70065;42.700;23.316;2023-08-30T06:45:58;44.90;18.70
80560;DHT22;70065;42.700;23.316;2023-08-30T06:48:44;45.00;18.50
80560;DHT22;70065;42.700;23.316;2023-08-30T06:51:12;45.20;18.40
80560;DHT22;70065;42.700;23.316;2023-08-30T06:53:40;45.30;18.30
80560;DHT22;70065;42.700;23.316;2023-08-30T06:56:09;45.40;18.20
80560;DHT22;70065;42.700;23.316;2023-08-30T06:58:36;45.50;18.30
80560;DHT22;70065;42.700;23.316;2023-08-30T07:01:01;45.50;18.00
80560;DHT22;70065;42.700;23.316;2023-08-30T07:03:28;45.40;18.20
80560;DHT22;70065;42.700;23.316;2023-08-30T07:05:54;45.40;18.20
80560;DHT22;70065;42.700;23.316;2023-08-30T07:08:20;45.50;18.20
80560;DHT22;70065;42.700;23.316;2023-08-30T07:10:46;45.60;18.10
80560;DHT22;70065;42.700;23.316;2023-08-30T07:13:13;45.30;18.20
80560;DHT22;70065;42.700;23.316;2023-08-30T07:15:42;45.50;18.20
80560;DHT22;70065;42.700;23.316;2023-08-30T07:18:09;45.70;18.10
80560;DHT22;70065;42.700;23.316;2023-08-30T07:20:38;45.90;17.90
80560;DHT22;70065;42.700;23.316;2023-08-30T07:23:04;46.40;17.80
80560;DHT22;70065;42.700;23.316;2023-08-30T07:25:30;46.70;17.40
80560;DHT22;70065;42.700;23.316;2023-08-30T07:27:58;47.10;17.40
80560;DHT22;70065;42.700;23.316;2023-08-30T07:30:24;47.30;17.10
80560;DHT22;70065;42.700;23.316;2023-08-30T07:32:50;47.60;16.70
80560;DHT22;70065;42.700;23.316;2023-08-30T07:35:16;48.00;16.60
80560;DHT22;70065;42.700;23.316;2023-08-30T07:37:43;48.40;16.30
80560;DHT22;70065;42.700;23.316;2023-08-30T07:40:16;48.80;16.20
80560;DHT22;70065;42.700;23.316;2023-08-30T07:42:46;49.10;15.90
80560;DHT22;70065;42.700;23.316;2023-08-30T07:45:43;49.50;15.70
80560;DHT22;70065;42.700;23.316;2023-08-30T07:48:32;50.00;15.50
80560;DHT22;70065;42.700;23.316;2023-08-30T07:51:03;50.20;15.30
80560;DHT22;70065;42.700;23.316;2023-08-30T07:53:36;50.40;15.20
80560;DHT22;70065;42.700;23.316;2023-08-30T07:59:27;50.80;15.00
80560;DHT22;70065;42.700;23.316;2023-08-30T08:02:22;50.80;14.80
80560;DHT22;70065;42.700;23.316;2023-08-30T08:04:53;51.20;14.70
80560;DHT22;70065;42.700;23.316;2023-08-30T08:07:41;51.30;14.60
80560;DHT22;70065;42.700;23.316;2023-08-30T08:10:16;51.40;14.60
80560;DHT22;70065;42.700;23.316;2023-08-30T08:13:06;51.20;14.50
80560;DHT22;70065;42.700;23.316;2023-08-30T08:15:32;50.20;15.10
80560;DHT22;70065;42.700;23.316;2023-08-30T08:18:08;50.00;15.10
80560;DHT22;70065;42.700;23.316;2023-08-30T08:20:37;50.40;14.90
80560;DHT22;70065;42.700;23.316;2023-08-30T08:23:13;50.70;14.60
80560;DHT22;70065;42.700;23.316;2023-08-30T08:25:45;50.80;14.70
80560;DHT22;70065;42.700;23.316;2023-08-30T08:28:14;51.10;14.50
80560;DHT22;70065;42.700;23.316;2023-08-30T08:34:15;51.20;14.50
80560;DHT22;70065;42.700;23.316;2023-08-30T08:37:06;51.50;14.30
80560;DHT22;70065;42.700;23.316;2023-08-30T08:39:41;51.40;14.30
80560;DHT22;70065;42.700;23.316;2023-08-30T08:42:38;51.50;14.20
80560;DHT22;70065;42.700;23.316;2023-08-30T08:45:06;51.60;14.20
80560;DHT22;70065;42.700;23.316;2023-08-30T08:47:32;50.70;14.50
80560;DHT22;70065;42.700;23.316;2023-08-30T08:49:58;50.30;14.80
80560;DHT22;70065;42.700;23.316;2023-08-30T08:52:25;50.20;14.80
80560;DHT22;70065;42.700;23.316;2023-08-30T08:55:20;50.10;15.20
80560;DHT22;70065;42.700;23.316;2023-08-30T08:58:18;49.50;15.30
80560;DHT22;70065;42.700;23.316;2023-08-30T09:00:44;48.40;15.60
80560;DHT22;70065;42.700;23.316;2023-08-30T09:03:35;47.60;16.30
80560;DHT22;70065;42.700;23.316;2023-08-30T09:06:21;46.90;16.70
80560;DHT22;70065;42.700;23.316;2023-08-30T09:16:00;44.50;18.10
80560;DHT22;70065;42.700;23.316;2023-08-30T09:18:28;43.70;18.50
80560;DHT22;70065;42.700;23.316;2023-08-30T09:21:21;43.30;18.90
80560;DHT22;70065;42.700;23.316;2023-08-30T09:24:08;42.80;19.30
80560;DHT22;70065;42.700;23.316;2023-08-30T09:26:53;42.30;19.60
80560;DHT22;70065;42.700;23.316;2023-08-30T09:31:55;41.60;20.10
80560;DHT22;70065;42.700;23.316;2023-08-30T09:34:34;41.30;20.30
80560;DHT22;70065;42.700;23.316;2023-08-30T09:37:28;41.10;20.50
80560;DHT22;70065;42.700;23.316;2023-08-30T09:39:57;40.90;20.70
80560;DHT22;70065;42.700;23.316;2023-08-30T09:42:31;40.60;20.90
80560;DHT22;70065;42.700;23.316;2023-08-30T09:48:32;40.20;21.20
80560;DHT22;70065;42.700;23.316;2023-08-30T09:51:03;39.90;21.40
80560;DHT22;70065;42.700;23.316;2023-08-30T09:53:49;39.70;21.70
80560;DHT22;70065;42.700;23.316;2023-08-30T09:59:55;39.40;22.00
80560;DHT22;70065;42.700;23.316;2023-08-30T10:02:25;39.10;22.10
80560;DHT22;70065;42.700;23.316;2023-08-30T10:04:52;38.90;22.30
80560;DHT22;70065;42.700;23.316;2023-08-30T10:07:18;38.70;22.60
80560;DHT22;70065;42.700;23.316;2023-08-30T10:09:45;38.50;22.70
80560;DHT22;70065;42.700;23.316;2023-08-30T10:12:12;38.30;22.90
80560;DHT22;70065;42.700;23.316;2023-08-30T10:14:41;38.10;23.10
80560;DHT22;70065;42.700;23.316;2023-08-30T10:17:09;38.00;23.20
80560;DHT22;70065;42.700;23.316;2023-08-30T10:19:38;37.80;23.40
80560;DHT22;70065;42.700;23.316;2023-08-30T10:25:15;37.70;24.30
80560;DHT22;70065;42.700;23.316;2023-08-30T10:28:07;37.70;23.50
80560;DHT22;70065;42.700;23.316;2023-08-30T10:30:45;37.50;23.70
80560;DHT22;70065;42.700;23.316;2023-08-30T10:33:46;37.40;23.80
80560;DHT22;70065;42.700;23.316;2023-08-30T10:39:59;37.30;23.80
80560;DHT22;70065;42.700;23.316;2023-08-30T10:42:25;37.10;24.10
80560;DHT22;70065;42.700;23.316;2023-08-30T10:45:01;37.00;24.00
80560;DHT22;70065;42.700;23.316;2023-08-30T10:47:32;36.90;24.20
80560;DHT22;70065;42.700;23.316;2023-08-30T10:49:59;36.90;24.10
80560;DHT22;70065;42.700;23.316;2023-08-30T10:52:31;36.90;24.30
80560;DHT22;70065;42.700;23.316;2023-08-30T10:55:07;36.90;24.20
80560;DHT22;70065;42.700;23.316;2023-08-30T10:57:36;36.90;24.20
80560;DHT22;70065;42.700;23.316;2023-08-30T11:00:06;36.90;24.20
80560;DHT22;70065;42.700;23.316;2023-08-30T11:02:37;36.80;24.30
80560;DHT22;70065;42.700;23.316;2023-08-30T11:05:06;36.90;24.30
80560;DHT22;70065;42.700;23.316;2023-08-30T11:07:34;36.90;24.30
80560;DHT22;70065;42.700;23.316;2023-08-30T11:10:06;37.10;24.10
80560;DHT22;70065;42.700;23.316;2023-08-30T11:12:33;37.10;24.10
80560;DHT22;70065;42.700;23.316;2023-08-30T11:15:00;37.20;24.10
80560;DHT22;70065;42.700;23.316;2023-08-30T11:17:33;37.30;24.10
80560;DHT22;70065;42.700;23.316;2023-08-30T11:20:12;37.30;24.00
80560;DHT22;70065;42.700;23.316;2023-08-30T11:22:46;37.30;23.90
80560;DHT22;70065;42.700;23.316;2023-08-30T11:25:14;37.30;23.90
80560;DHT22;70065;42.700;23.316;2023-08-30T11:27:41;37.30;24.00
80560;DHT22;70065;42.700;23.316;2023-08-30T11:30:12;37.30;23.90
80560;DHT22;70065;42.700;23.316;2023-08-30T11:32:40;37.30;23.90
80560;DHT22;70065;42.700;23.316;2023-08-30T11:35:08;37.30;24.00
80560;DHT22;70065;42.700;23.316;2023-08-30T11:37:34;37.30;23.80
80560;DHT22;70065;42.700;23.316;2023-08-30T11:40:01;37.30;23.80
80560;DHT22;70065;42.700;23.316;2023-08-30T11:42:33;37.30;24.00
80560;DHT22;70065;42.700;23.316;2023-08-30T11:45:02;37.30;23.90
80560;DHT22;70065;42.700;23.316;2023-08-30T11:47:29;37.20;23.90
80560;DHT22;70065;42.700;23.316;2023-08-30T11:49:57;37.20;23.90
80560;DHT22;70065;42.700;23.316;2023-08-30T11:52:26;37.20;23.80
80560;DHT22;70065;42.700;23.316;2023-08-30T11:54:52;37.10;23.70
80560;DHT22;70065;42.700;23.316;2023-08-30T11:57:17;37.10;24.20
80560;DHT22;70065;42.700;23.316;2023-08-30T11:59:44;36.90;24.10
80560;DHT22;70065;42.700;23.316;2023-08-30T12:02:19;36.80;24.10
80560;DHT22;70065;42.700;23.316;2023-08-30T12:04:47;36.80;24.30
80560;DHT22;70065;42.700;23.316;2023-08-30T12:07:23;36.60;24.40
80560;DHT22;70065;42.700;23.316;2023-08-30T12:09:51;36.60;24.40
80560;DHT22;70065;42.700;23.316;2023-08-30T12:12:17;36.50;24.40
80560;DHT22;70065;42.700;23.316;2023-08-30T12:14:53;36.40;24.70
80560;DHT22;70065;42.700;23.316;2023-08-30T12:17:24;36.30;24.80
80560;DHT22;70065;42.700;23.316;2023-08-30T12:19:57;36.30;24.70
80560;DHT22;70065;42.700;23.316;2023-08-30T12:22:23;36.30;24.80
80560;DHT22;70065;42.700;23.316;2023-08-30T12:24:51;36.30;24.90
80560;DHT22;70065;42.700;23.316;2023-08-30T12:27:46;36.30;24.90
80560;DHT22;70065;42.700;23.316;2023-08-30T12:30:45;36.40;24.80
80560;DHT22;70065;42.700;23.316;2023-08-30T12:33:41;36.40;24.60
80560;DHT22;70065;42.700;23.316;2023-08-30T12:39:20;36.40;24.80
80560;DHT22;70065;42.700;23.316;2023-08-30T12:41:48;36.30;24.60
80560;DHT22;70065;42.700;23.316;2023-08-30T12:47:51;36.30;24.80
80560;DHT22;70065;42.700;23.316;2023-08-30T12:50:16;36.30;24.80
80560;DHT22;70065;42.700;23.316;2023-08-30T12:56:32;36.50;24.80
80560;DHT22;70065;42.700;23.316;2023-08-30T13:05:46;36.40;24.70
80560;DHT22;70065;42.700;23.316;2023-08-30T13:08:21;36.40;24.70
80560;DHT22;70065;42.700;23.316;2023-08-30T13:10:46;36.40;25.40
80560;DHT22;70065;42.700;23.316;2023-08-30T13:13:22;36.40;24.50
80560;DHT22;70065;42.700;23.316;2023-08-30T13:16:13;36.50;24.70
80560;DHT22;70065;42.700;23.316;2023-08-30T13:24:32;36.60;24.50
80560;DHT22;70065;42.700;23.316;2023-08-30T13:26:58;36.80;25.30
80560;DHT22;70065;42.700;23.316;2023-08-30T13:29:30;36.80;24.30
80560;DHT22;70065;42.700;23.316;2023-08-30T13:32:13;36.90;24.30
80560;DHT22;70065;42.700;23.316;2023-08-30T13:38:57;37.00;24.10
80560;DHT22;70065;42.700;23.316;2023-08-30T13:41:25;36.90;24.30
80560;DHT22;70065;42.700;23.316;2023-08-30T13:44:19;36.90;24.20
80560;DHT22;70065;42.700;23.316;2023-08-30T13:53:05;36.90;24.30
80560;DHT22;70065;42.700;23.316;2023-08-30T13:56:07;36.80;24.20
80560;DHT22;70065;42.700;23.316;2023-08-30T14:05:33;36.80;24.20
80560;DHT22;70065;42.700;23.316;2023-08-30T14:07:59;36.70;24.30
80560;DHT22;70065;42.700;23.316;2023-08-30T15:44:36;34.90;26.70
80560;DHT22;70065;42.700;23.316;2023-08-30T15:47:05;34.90;26.00
80560;DHT22;70065;42.700;23.316;2023-08-30T15:49:52;34.90;26.00
80560;DHT22;70065;42.700;23.316;2023-08-30T15:52:25;34.80;26.00
80560;DHT22;70065;42.700;23.316;2023-08-30T15:54:51;34.70;26.00
80560;DHT22;70065;42.700;23.316;2023-08-30T15:57:18;34.70;26.10
80560;DHT22;70065;42.700;23.316;2023-08-30T15:59:45;34.70;26.10
80560;DHT22;70065;42.700;23.316;2023-08-30T16:02:14;34.60;26.20
80560;DHT22;70065;42.700;23.316;2023-08-30T16:07:59;34.60;26.20
80560;DHT22;70065;42.700;23.316;2023-08-30T16:10:25;34.50;26.30
80560;DHT22;70065;42.700;23.316;2023-08-30T16:12:51;34.50;26.30
80560;DHT22;70065;42.700;23.316;2023-08-30T16:15:17;34.50;26.40
80560;DHT22;70065;42.700;23.316;2023-08-30T16:17:42;34.40;26.30
80560;DHT22;70065;42.700;23.316;2023-08-30T16:20:11;34.40;26.40
80560;DHT22;70065;42.700;23.316;2023-08-30T16:22:37;34.40;26.40
80560;DHT22;70065;42.700;23.316;2023-08-30T16:25:06;34.30;26.40
80560;DHT22;70065;42.700;23.316;2023-08-30T16:27:32;34.30;26.50
80560;DHT22;70065;42.700;23.316;2023-08-30T16:29:58;34.30;26.50
80560;DHT22;70065;42.700;23.316;2023-08-30T16:32:27;34.20;26.50
80560;DHT22;70065;42.700;23.316;2023-08-30T16:34:54;34.10;26.60
80560;DHT22;70065;42.700;23.316;2023-08-30T16:37:20;34.10;26.70
80560;DHT22;70065;42.700;23.316;2023-08-30T16:39:46;34.00;26.70
80560;DHT22;70065;42.700;23.316;2023-08-30T16:42:12;33.90;26.80
80560;DHT22;70065;42.700;23.316;2023-08-30T16:44:38;33.80;26.80
80560;DHT22;70065;42.700;23.316;2023-08-30T16:47:06;33.80;26.90
80560;DHT22;70065;42.700;23.316;2023-08-30T16:49:32;33.70;27.00
80560;DHT22;70065;42.700;23.316;2023-08-30T16:51:58;33.70;27.10
80560;DHT22;70065;42.700;23.316;2023-08-30T16:54:23;33.60;27.10
80560;DHT22;70065;42.700;23.316;2023-08-30T16:56:49;33.50;27.20
80560;DHT22;70065;42.700;23.316;2023-08-30T16:59:15;33.50;27.30
80560;DHT22;70065;42.700;23.316;2023-08-30T17:01:41;33.40;27.30
80560;DHT22;70065;42.700;23.316;2023-08-30T17:04:09;33.30;27.40
80560;DHT22;70065;42.700;23.316;2023-08-30T17:06:36;33.30;27.40
80560;DHT22;70065;42.700;23.316;2023-08-30T17:09:05;33.30;27.50
80560;DHT22;70065;42.700;23.316;2023-08-30T17:11:31;33.20;27.50
80560;DHT22;70065;42.700;23.316;2023-08-30T17:13:59;33.20;27.60
80560;DHT22;70065;42.700;23.316;2023-08-30T17:16:26;33.10;27.40
80560;DHT22;70065;42.700;23.316;2023-08-30T17:18:52;33.00;27.60
80560;DHT22;70065;42.700;23.316;2023-08-30T17:21:17;33.00;27.70
80560;DHT22;70065;42.700;23.316;2023-08-30T17:23:43;33.00;27.70
80560;DHT22;70065;42.700;23.316;2023-08-30T17:26:10;33.00;27.80
80560;DHT22;70065;42.700;23.316;2023-08-30T17:28:36;32.90;27.80
80560;DHT22;70065;42.700;23.316;2023-08-30T17:31:03;32.90;27.90
80560;DHT22;70065;42.700;23.316;2023-08-30T17:33:32;32.80;27.80
80560;DHT22;70065;42.700;23.316;2023-08-30T17:36:05;32.80;27.90
80560;DHT22;70065;42.700;23.316;2023-08-30T17:38:31;32.80;27.90
80560;DHT22;70065;42.700;23.316;2023-08-30T17:40:57;32.70;27.80
80560;DHT22;70065;42.700;23.316;2023-08-30T17:43:23;32.80;28.00
80560;DHT22;70065;42.700;23.316;2023-08-30T17:45:49;32.70;27.90
80560;DHT22;70065;42.700;23.316;2023-08-30T17:48:15;32.70;28.00
80560;DHT22;70065;42.700;23.316;2023-08-30T17:50:42;32.70;28.00
80560;DHT22;70065;42.700;23.316;2023-08-30T17:53:14;32.70;28.00
80560;DHT22;70065;42.700;23.316;2023-08-30T17:55:41;32.70;28.00
80560;DHT22;70065;42.700;23.316;2023-08-30T17:58:07;32.70;28.10
80560;DHT22;70065;42.700;23.316;2023-08-30T18:00:34;32.70;28.10
80560;DHT22;70065;42.700;23.316;2023-08-30T18:03:00;32.60;28.10
80560;DHT22;70065;42.700;23.316;2023-08-30T18:05:26;32.60;28.10
80560;DHT22;70065;42.700;23.316;2023-08-30T18:07:51;32.60;28.10
80560;DHT22;70065;42.700;23.316;2023-08-30T18:10:22;32.60;28.10
80560;DHT22;70065;42.700;23.316;2023-08-30T18:12:48;32.60;28.20
80560;DHT22;70065;42.700;23.316;2023-08-30T18:15:13;32.60;28.20
80560;DHT22;70065;42.700;23.316;2023-08-30T18:17:39;32.50;28.20
80560;DHT22;70065;42.700;23.316;2023-08-30T18:20:05;32.50;28.50
80560;DHT22;70065;42.700;23.316;2023-08-30T18:22:32;32.50;28.20
80560;DHT22;70065;42.700;23.316;2023-08-30T18:24:57;32.50;28.20
80560;DHT22;70065;42.700;23.316;2023-08-30T18:27:24;32.50;28.20
80560;DHT22;70065;42.700;23.316;2023-08-30T18:29:50;32.50;28.30
80560;DHT22;70065;42.700;23.316;2023-08-30T18:32:16;32.50;28.30
80560;DHT22;70065;42.700;23.316;2023-08-30T18:34:43;32.50;29.00
80560;DHT22;70065;42.700;23.316;2023-08-30T18:37:09;32.50;28.30
80560;DHT22;70065;42.700;23.316;2023-08-30T18:39:35;32.50;28.30
80560;DHT22;70065;42.700;23.316;2023-08-30T18:42:01;32.40;28.30
80560;DHT22;70065;42.700;23.316;2023-08-30T18:44:26;32.40;28.30
80560;DHT22;70065;42.700;23.316;2023-08-30T18:46:55;32.40;28.60
80560;DHT22;70065;42.700;23.316;2023-08-30T18:49:21;32.40;28.30
80560;DHT22;70065;42.700;23.316;2023-08-30T18:51:48;32.40;28.40
80560;DHT22;70065;42.700;23.316;2023-08-30T18:54:14;32.40;28.40
80560;DHT22;70065;42.700;23.316;2023-08-30T18:56:39;32.40;28.40
80560;DHT22;70065;42.700;23.316;2023-08-30T18:59:05;32.40;28.40
80560;DHT22;70065;42.700;23.316;2023-08-30T19:01:31;32.30;28.40
80560;DHT22;70065;42.700;23.316;2023-08-30T19:03:58;32.30;28.40
80560;DHT22;70065;42.700;23.316;2023-08-30T19:06:24;32.30;28.40
80560;DHT22;70065;42.700;23.316;2023-08-30T19:08:51;32.30;28.40
80560;DHT22;70065;42.700;23.316;2023-08-30T19:11:21;32.30;28.20
80560;DHT22;70065;42.700;23.316;2023-08-30T19:13:47;32.30;28.40
80560;DHT22;70065;42.700;23.316;2023-08-30T19:16:13;32.30;28.40
80560;DHT22;70065;42.700;23.316;2023-08-30T19:18:47;32.30;28.50
80560;DHT22;70065;42.700;23.316;2023-08-30T19:21:12;32.30;28.50
80560;DHT22;70065;42.700;23.316;2023-08-30T19:23:39;32.30;28.60